Time;durP1;ratioP1;P1;durP2;ratioP2;P2;SDS_P1;SDS_P2;PMS_P1;PMS_P2;Temp;Humidity;BMP_temperature;BMP_pressure;BME280_temperature;BME280_humidity;BME280_pressure;Samples;Min_cycle;Max_cycle;Signal;HPM_P1;HPM_P2
2022/11/28 00:00:38;;;;;;;17.35;8.55;;;6.50;99.90;;;;;;5030183;28;20041;-71
2022/11/28 00:03:03;;;;;;;13.07;7.35;;;6.50;99.90;;;;;;5013181;28;20042;-71
2022/11/28 00:05:29;;;;;;;12.75;8.20;;;6.50;99.90;;;;;;4994790;28;20419;-71
2022/11/28 00:07:55;;;;;;;13.18;7.47;;;6.50;99.90;;;;;;5030295;28;20148;-71
2022/11/28 00:10:21;;;;;;;11.38;7.55;;;6.50;99.90;;;;;;4993571;28;20054;-71
2022/11/28 00:12:47;;;;;;;12.02;7.13;;;6.50;99.90;;;;;;5028649;28;20060;-71
2022/11/28 00:15:13;;;;;;;14.73;7.70;;;6.50;99.90;;;;;;5012382;28;20049;-71
2022/11/28 00:17:39;;;;;;;13.43;7.00;;;6.50;99.90;;;;;;5012016;28;20061;-71
2022/11/28 00:20:06;;;;;;;16.23;7.85;;;6.50;99.90;;;;;;5013004;28;20049;-71
2022/11/28 00:22:31;;;;;;;10.52;6.32;;;6.50;99.90;;;;;;5028174;28;20056;-71
2022/11/28 00:24:57;;;;;;;11.30;5.47;;;6.50;99.90;;;;;;5027613;28;20053;-71
2022/11/28 00:27:23;;;;;;;14.52;7.05;;;6.50;99.90;;;;;;5029433;28;20057;-72
2022/11/28 00:29:49;;;;;;;10.43;6.20;;;6.50;99.90;;;;;;5027102;28;20092;-71
2022/11/28 00:32:14;;;;;;;11.75;6.63;;;6.50;99.90;;;;;;5029409;28;20052;-71
2022/11/28 00:34:40;;;;;;;9.95;5.40;;;6.50;99.90;;;;;;5012262;28;20060;-71
2022/11/28 00:37:06;;;;;;;9.98;6.22;;;6.50;99.90;;;;;;5029229;28;20057;-72
2022/11/28 00:39:31;;;;;;;10.95;6.50;;;6.50;99.90;;;;;;4996118;28;20033;-70
2022/11/28 00:41:57;;;;;;;8.75;5.50;;;6.50;99.90;;;;;;5013037;28;20041;-72
2022/11/28 00:44:23;;;;;;;9.85;5.93;;;6.40;99.90;;;;;;5012772;28;20044;-72
2022/11/28 00:46:49;;;;;;;7.90;5.15;;;6.40;99.90;;;;;;5028264;28;20142;-71
2022/11/28 00:49:15;;;;;;;6.78;4.82;;;6.40;99.90;;;;;;5025697;28;20124;-71
2022/11/28 00:51:40;;;;;;;10.18;5.20;;;6.50;99.90;;;;;;5029869;28;20052;-71
2022/11/28 00:54:06;;;;;;;9.52;5.88;;;6.50;99.90;;;;;;5009371;28;20037;-70
2022/11/28 00:56:34;;;;;;;10.85;5.70;;;6.50;99.90;;;;;;5027735;28;20106;-71
2022/11/28 00:58:59;;;;;;;14.30;6.40;;;6.50;99.90;;;;;;5028093;28;20138;-70
2022/11/28 01:01:33;;;;;;;10.30;6.32;;;6.50;99.90;;;;;;4994997;28;20104;-71
2022/11/28 01:04:00;;;;;;;10.40;6.57;;;6.50;99.90;;;;;;5008096;28;20051;-70
2022/11/28 01:06:28;;;;;;;8.27;5.77;;;6.50;99.90;;;;;;5028175;28;20095;-71
2022/11/28 01:08:54;;;;;;;10.07;6.22;;;6.50;99.90;;;;;;5005905;28;20287;-72
2022/11/28 01:11:20;;;;;;;8.93;5.97;;;6.50;99.90;;;;;;5011643;28;20053;-71
2022/11/28 01:13:46;;;;;;;10.95;6.53;;;6.50;99.90;;;;;;5012360;28;20057;-71
2022/11/28 01:16:12;;;;;;;8.45;5.65;;;6.50;99.90;;;;;;5012257;28;20064;-72
2022/11/28 01:18:38;;;;;;;10.05;5.63;;;6.40;99.90;;;;;;4998534;28;20752;-70
2022/11/28 01:21:04;;;;;;;9.07;5.93;;;6.40;99.90;;;;;;5006019;28;20043;-70
2022/11/28 01:23:30;;;;;;;8.15;5.45;;;6.40;99.90;;;;;;5022425;28;20128;-71
2022/11/28 01:25:56;;;;;;;8.13;5.40;;;6.40;99.90;;;;;;4995839;28;20183;-71
2022/11/28 01:28:21;;;;;;;10.02;5.30;;;6.40;99.90;;;;;;5011926;28;20920;-71
2022/11/28 01:30:47;;;;;;;8.70;5.10;;;6.40;99.90;;;;;;5012127;28;20171;-66
2022/11/28 01:33:13;;;;;;;8.70;5.25;;;6.40;99.90;;;;;;4994445;28;20502;-67
2022/11/28 01:35:38;;;;;;;8.60;5.53;;;6.40;99.90;;;;;;5008134;28;20061;-67
2022/11/28 01:38:05;;;;;;;7.75;5.32;;;6.40;99.90;;;;;;5028052;28;20456;-67
2022/11/28 01:40:30;;;;;;;10.55;5.50;;;6.40;99.90;;;;;;4993808;28;20080;-67
2022/11/28 01:42:56;;;;;;;8.93;5.13;;;6.30;99.90;;;;;;5008500;28;20065;-67
2022/11/28 01:45:30;;;;;;;8.95;5.85;;;6.40;99.90;;;;;;5028106;28;20041;-66
2022/11/28 01:47:58;;;;;;;7.00;5.10;;;6.40;99.90;;;;;;5012045;28;20077;-66
2022/11/28 01:50:24;;;;;;;;;;;6.30;99.90;;;;;;4995602;28;20051;-67
2022/11/28 01:52:52;;;;;;;9.00;5.57;;;6.30;99.90;;;;;;5027336;28;20376;-67
2022/11/28 01:55:19;;;;;;;;;;;6.30;99.90;;;;;;4991720;28;20143;-67
2022/11/28 01:57:45;;;;;;;8.88;6.00;;;6.30;99.90;;;;;;5028300;28;19916;-66
2022/11/28 02:00:13;;;;;;;8.80;5.55;;;6.30;99.90;;;;;;5020233;28;20513;-66
2022/11/28 02:02:41;;;;;;;7.28;5.05;;;6.30;99.90;;;;;;5009410;28;20121;-68
2022/11/28 02:05:07;;;;;;;7.80;4.78;;;6.30;99.90;;;;;;5011873;28;20053;-66
2022/11/28 02:07:34;;;;;;;9.40;5.80;;;6.30;99.90;;;;;;5026179;28;20042;-66
2022/11/28 02:10:01;;;;;;;7.03;5.15;;;6.30;99.90;;;;;;5009349;28;20088;-66
2022/11/28 02:13:01;;;;;;;9.75;5.43;;;6.30;99.90;;;;;;5006459;28;20054;-66
2022/11/28 02:15:50;;;;;;;9.27;5.80;;;6.30;99.90;;;;;;5029258;28;20467;-67
2022/11/28 02:18:47;;;;;;;8.38;5.40;;;6.20;99.90;;;;;;5023291;28;20541;-67
2022/11/28 02:21:27;;;;;;;9.87;5.00;;;6.20;99.90;;;;;;5023791;28;20045;-66
2022/11/28 02:24:14;;;;;;;7.88;5.10;;;6.30;99.90;;;;;;5012189;28;20049;-67
2022/11/28 02:27:05;;;;;;;8.88;5.38;;;6.30;99.90;;;;;;5029047;28;20080;-67
2022/11/28 02:30:05;;;;;;;7.43;4.88;;;6.20;99.90;;;;;;5022041;28;20045;-67
2022/11/28 02:32:43;;;;;;;8.55;5.13;;;6.20;99.90;;;;;;5023593;28;20068;-66
2022/11/28 02:35:34;;;;;;;8.10;4.65;;;6.20;99.90;;;;;;5010576;28;20444;-66
2022/11/28 02:38:33;;;;;;;10.25;5.18;;;6.20;99.90;;;;;;5026179;28;20053;-66
2022/11/28 02:41:06;;;;;;;8.60;4.85;;;6.20;99.90;;;;;;5028252;28;20045;-66
2022/11/28 02:44:03;;;;;;;8.00;5.30;;;6.20;99.90;;;;;;5006543;28;20041;-67
2022/11/28 02:46:57;;;;;;;8.35;5.78;;;6.20;99.90;;;;;;5005549;28;20033;-66
2022/11/28 02:50:06;;;;;;;8.90;5.53;;;6.20;99.90;;;;;;5024583;28;20053;-66
2022/11/28 02:52:44;;;;;;;9.15;5.55;;;6.10;99.90;;;;;;5024459;28;20052;-67
2022/11/28 02:55:10;;;;;;;;;;;6.10;99.90;;;;;;5012284;28;20060;-67
2022/11/28 02:57:41;;;;;;;12.52;6.78;;;6.10;99.90;;;;;;5028168;28;20401;-67
2022/11/28 03:00:27;;;;;;;11.07;6.75;;;6.20;99.90;;;;;;5026698;28;20049;-66
2022/11/28 03:03:15;;;;;;;8.57;5.78;;;6.10;99.90;;;;;;5022441;28;20116;-67
2022/11/28 03:06:18;;;;;;;9.63;6.15;;;6.10;99.90;;;;;;5018483;28;20126;-69
2022/11/28 03:09:05;;;;;;;11.57;6.38;;;6.10;99.90;;;;;;5027976;28;20134;-66
2022/11/28 03:11:54;;;;;;;9.48;6.57;;;6.10;99.90;;;;;;5007619;28;20507;-68
2022/11/28 03:14:47;;;;;;;10.55;6.07;;;6.00;99.90;;;;;;5017478;28;20484;-66
2022/11/28 03:17:38;;;;;;;10.85;6.28;;;5.90;99.90;;;;;;5011693;28;20822;-66
2022/11/28 03:20:31;;;;;;;10.77;6.15;;;6.00;99.90;;;;;;5031926;28;20041;-66
2022/11/28 03:23:16;;;;;;;11.05;5.95;;;5.90;99.90;;;;;;5029498;28;20108;-66
2022/11/28 03:26:04;;;;;;;11.65;6.53;;;6.10;99.90;;;;;;5031604;28;20081;-66
2022/11/28 03:28:34;;;;;;;;;;;6.00;99.90;;;;;;5029738;28;20068;-66
2022/11/28 03:31:06;;;;;;;12.93;6.20;;;6.00;99.90;;;;;;5024201;28;19984;-66
2022/11/28 03:33:40;;;;;;;10.32;6.22;;;6.00;99.90;;;;;;5025207;28;20049;-67
2022/11/28 03:36:18;;;;;;;8.63;5.82;;;5.80;99.90;;;;;;5010862;28;20068;-66
2022/11/28 03:38:47;;;;;;;10.18;4.95;;;5.70;99.90;;;;;;5002375;28;20045;-65
2022/11/28 03:41:17;;;;;;;9.88;4.53;;;5.80;99.90;;;;;;4984091;28;20132;-67
2022/11/28 03:43:54;;;;;;;10.88;5.63;;;5.80;99.90;;;;;;4985484;28;20137;-66
2022/11/28 03:46:21;;;;;;;9.13;5.57;;;5.80;99.90;;;;;;5030073;28;20041;-66
2022/11/28 03:48:51;;;;;;;8.77;6.07;;;5.80;99.90;;;;;;5007563;28;20071;-66
2022/11/28 03:51:19;;;;;;;11.57;6.75;;;5.80;99.90;;;;;;4997570;28;20129;-65
2022/11/28 03:54:06;;;;;;;11.88;6.65;;;5.70;99.90;;;;;;5014292;28;20052;-67
2022/11/28 03:56:40;;;;;;;17.30;7.57;;;5.80;99.90;;;;;;5027737;28;20547;-66
2022/11/28 03:59:22;;;;;;;14.85;7.07;;;5.70;99.90;;;;;;5024621;28;20045;-67
2022/11/28 04:01:56;;;;;;;11.15;7.47;;;5.70;99.90;;;;;;5014253;28;20415;-65
2022/11/28 04:04:39;;;;;;;11.82;7.72;;;5.70;99.90;;;;;;4991247;28;20804;-67
2022/11/28 04:07:40;;;;;;;13.43;8.07;;;5.70;99.90;;;;;;5019109;28;20135;-66
2022/11/28 04:10:21;;;;;;;13.60;7.60;;;5.60;99.90;;;;;;5012383;28;20041;-67
2022/11/28 04:13:16;;;;;;;13.32;8.15;;;5.50;99.90;;;;;;5012271;28;20467;-67
2022/11/28 04:15:58;;;;;;;13.25;8.32;;;5.50;99.90;;;;;;5024756;28;20053;-68
2022/11/28 04:18:28;;;;;;;13.10;7.53;;;5.60;99.90;;;;;;5024360;28;20111;-66
2022/11/28 04:21:06;;;;;;;12.60;6.57;;;5.60;99.90;;;;;;5029547;28;20045;-66
2022/11/28 04:23:32;;;;;;;8.43;6.20;;;5.60;99.90;;;;;;4996246;28;20550;-66
2022/11/28 04:26:03;;;;;;;10.10;5.75;;;5.70;99.90;;;;;;4997173;28;20276;-66
2022/11/28 04:28:30;;;;;;;7.78;4.95;;;5.70;99.90;;;;;;5013595;28;20037;-67
2022/11/28 04:30:56;;;;;;;6.20;5.00;;;5.80;99.90;;;;;;4996339;28;20471;-67
2022/11/28 04:33:23;;;;;;;7.40;4.57;;;5.90;99.90;;;;;;5006916;28;20049;-66
2022/11/28 04:35:50;;;;;;;8.02;4.88;;;5.90;99.90;;;;;;5012740;28;20399;-67
2022/11/28 04:38:16;;;;;;;7.73;4.57;;;5.90;99.90;;;;;;4994410;28;20050;-66
2022/11/28 04:40:46;;;;;;;8.88;5.40;;;6.00;99.90;;;;;;5011674;28;20462;-66
2022/11/28 04:43:18;;;;;;;8.05;5.00;;;6.00;99.90;;;;;;4996907;28;20076;-66
2022/11/28 04:45:48;;;;;;;8.02;5.00;;;6.00;99.90;;;;;;5012852;28;20041;-67
2022/11/28 04:48:14;;;;;;;7.78;5.32;;;6.00;99.90;;;;;;4994947;28;20056;-66
2022/11/28 04:50:53;;;;;;;10.02;5.88;;;6.00;99.90;;;;;;4995762;28;20041;-66
2022/11/28 04:53:23;;;;;;;9.73;4.95;;;6.00;99.90;;;;;;5011934;28;20045;-66
2022/11/28 04:55:56;;;;;;;7.97;4.78;;;6.00;99.90;;;;;;4997437;28;20331;-66
2022/11/28 04:58:30;;;;;;;8.60;5.10;;;6.10;99.90;;;;;;4993542;28;20049;-67
2022/11/28 05:00:55;;;;;;;8.93;4.97;;;6.10;99.90;;;;;;5028695;28;20046;-67
2022/11/28 05:03:21;;;;;;;8.45;5.72;;;6.00;99.90;;;;;;4996197;28;20060;-67
2022/11/28 05:05:49;;;;;;;11.52;6.90;;;6.10;99.90;;;;;;5009669;28;20359;-66
2022/11/28 05:08:16;;;;;;;12.23;7.68;;;6.00;99.90;;;;;;5009966;28;20419;-67
2022/11/28 05:10:41;;;;;;;12.65;8.32;;;6.00;99.90;;;;;;4993110;28;20240;-66
2022/11/28 05:13:07;;;;;;;13.35;8.23;;;5.90;99.90;;;;;;5026088;28;20562;-67
2022/11/28 05:15:33;;;;;;;15.02;8.07;;;6.00;99.90;;;;;;5024926;28;20056;-67
2022/11/28 05:17:59;;;;;;;14.45;8.40;;;6.00;99.90;;;;;;5006620;28;20049;-67
2022/11/28 05:20:24;;;;;;;12.52;8.02;;;6.00;99.90;;;;;;4996170;28;20752;-67
2022/11/28 05:22:50;;;;;;;13.10;8.85;;;6.00;99.90;;;;;;5028583;28;20542;-67
2022/11/28 05:25:16;;;;;;;13.18;8.18;;;6.00;99.90;;;;;;5027524;28;20041;-67
2022/11/28 05:27:42;;;;;;;12.57;8.40;;;6.00;99.90;;;;;;5012037;28;20045;-67
2022/11/28 05:30:08;;;;;;;13.20;7.65;;;6.00;99.90;;;;;;4995434;28;20053;-67
2022/11/28 05:32:35;;;;;;;14.20;7.95;;;6.00;99.90;;;;;;4978691;28;20755;-68
2022/11/28 05:35:01;;;;;;;12.13;8.20;;;6.00;99.90;;;;;;5010861;28;20071;-67
2022/11/28 05:37:26;;;;;;;14.60;8.43;;;6.00;99.90;;;;;;5010841;28;20735;-67
2022/11/28 05:39:52;;;;;;;12.55;7.72;;;6.00;99.90;;;;;;4993130;28;20045;-67
2022/11/28 05:42:18;;;;;;;17.02;8.80;;;6.00;99.90;;;;;;5028518;28;20053;-68
2022/11/28 05:44:44;;;;;;;17.35;9.02;;;6.00;99.90;;;;;;5012039;28;20064;-65
2022/11/28 05:47:10;;;;;;;14.60;8.13;;;6.00;99.90;;;;;;5027146;28;20076;-65
2022/11/28 05:49:36;;;;;;;13.48;8.18;;;6.00;99.90;;;;;;5027506;28;20162;-66
2022/11/28 05:52:01;;;;;;;15.23;8.63;;;6.00;99.90;;;;;;5012501;28;20072;-65
2022/11/28 05:54:29;;;;;;;12.55;8.27;;;5.90;99.90;;;;;;4995916;28;20119;-66
2022/11/28 05:56:55;;;;;;;12.60;7.90;;;6.00;99.90;;;;;;5011381;28;20053;-66
2022/11/28 05:59:21;;;;;;;12.27;7.93;;;5.90;99.90;;;;;;5029398;28;20045;-66
2022/11/28 06:01:46;;;;;;;11.55;8.10;;;5.90;99.90;;;;;;5028197;28;20045;-66
2022/11/28 06:04:12;;;;;;;13.23;7.43;;;5.90;99.90;;;;;;5024451;28;20057;-67
2022/11/28 06:06:38;;;;;;;14.30;8.52;;;5.90;99.90;;;;;;5011225;28;20049;-65
2022/11/28 06:09:04;;;;;;;13.25;8.43;;;5.90;99.90;;;;;;5025462;28;20064;-66
2022/11/28 06:11:32;;;;;;;13.85;8.02;;;5.90;99.90;;;;;;5023379;28;20515;-66
2022/11/28 06:13:58;;;;;;;14.90;9.10;;;5.90;99.90;;;;;;4995622;28;20164;-66
2022/11/28 06:16:27;;;;;;;15.95;9.85;;;5.90;99.90;;;;;;5011013;28;20509;-67
2022/11/28 06:18:58;;;;;;;13.23;8.73;;;5.90;99.90;;;;;;5005548;28;20057;-66
2022/11/28 06:21:23;;;;;;;12.90;8.38;;;5.80;99.90;;;;;;5011282;28;20234;-67
2022/11/28 06:23:49;;;;;;;15.02;9.02;;;5.90;99.90;;;;;;5011592;28;20751;-67
2022/11/28 06:26:17;;;;;;;14.55;8.23;;;5.90;99.90;;;;;;5010772;28;20055;-67
2022/11/28 06:28:43;;;;;;;14.80;7.93;;;5.80;99.90;;;;;;4991117;28;20392;-67
2022/11/28 06:31:13;;;;;;;15.55;8.55;;;5.90;99.90;;;;;;5010834;28;20053;-65
2022/11/28 06:33:39;;;;;;;15.07;9.13;;;5.90;99.90;;;;;;5011018;28;20195;-66
2022/11/28 06:36:05;;;;;;;14.32;9.07;;;5.80;99.90;;;;;;5011392;28;20061;-66
2022/11/28 06:38:31;;;;;;;14.07;9.20;;;5.80;99.90;;;;;;5010261;28;20060;-65
2022/11/28 06:40:58;;;;;;;11.98;8.00;;;5.80;99.90;;;;;;5011647;28;20215;-67
2022/11/28 06:43:23;;;;;;;15.93;9.20;;;5.80;99.90;;;;;;5022334;28;20053;-66
2022/11/28 06:45:49;;;;;;;14.60;8.93;;;5.80;99.90;;;;;;5028004;28;20045;-65
2022/11/28 06:48:15;;;;;;;16.45;9.43;;;5.80;99.90;;;;;;4995940;28;20052;-66
2022/11/28 06:50:41;;;;;;;14.40;8.90;;;5.80;99.90;;;;;;5025782;28;20128;-67
2022/11/28 06:53:07;;;;;;;15.55;8.48;;;5.80;99.90;;;;;;5015718;28;20095;-66
2022/11/28 06:55:32;;;;;;;16.98;9.52;;;5.80;99.90;;;;;;5031082;28;20102;-67
2022/11/28 06:57:58;;;;;;;17.48;9.75;;;5.70;99.90;;;;;;4998859;28;20057;-66
2022/11/28 07:00:24;;;;;;;16.45;9.40;;;5.70;99.90;;;;;;5025506;28;20045;-66
2022/11/28 07:02:50;;;;;;;15.93;8.75;;;5.70;99.90;;;;;;4982381;28;20045;-66
2022/11/28 07:05:16;;;;;;;13.63;8.07;;;5.70;99.90;;;;;;5015219;28;20068;-66
2022/11/28 07:07:42;;;;;;;14.30;8.65;;;5.60;99.90;;;;;;5027033;28;20651;-66
2022/11/28 07:10:08;;;;;;;13.20;8.57;;;5.60;99.90;;;;;;4997690;28;20068;-66
2022/11/28 07:12:34;;;;;;;12.13;8.20;;;5.60;99.90;;;;;;4997786;28;20159;-67
2022/11/28 07:15:00;;;;;;;14.10;8.70;;;5.60;99.90;;;;;;5030626;28;20526;-67
2022/11/28 07:17:25;;;;;;;12.75;8.23;;;5.60;99.90;;;;;;5031427;28;20080;-66
2022/11/28 07:19:51;;;;;;;20.92;10.13;;;5.70;99.90;;;;;;5013348;28;20096;-65
2022/11/28 07:22:17;;;;;;;15.27;8.95;;;5.70;99.90;;;;;;5028545;28;20578;-65
2022/11/28 07:24:42;;;;;;;15.50;8.93;;;5.70;99.90;;;;;;4997597;28;20050;-66
2022/11/28 07:27:08;;;;;;;17.20;8.60;;;5.70;99.90;;;;;;5025688;28;20157;-67
2022/11/28 07:29:37;;;;;;;12.50;7.55;;;5.70;99.90;;;;;;5012446;28;20115;-67
2022/11/28 07:32:04;;;;;;;;;;;5.70;99.90;;;;;;5026993;28;20538;-66
2022/11/28 07:34:30;;;;;;;12.93;8.03;;;5.70;99.90;;;;;;5030515;28;20019;-65
2022/11/28 07:36:56;;;;;;;10.98;7.13;;;5.60;99.90;;;;;;5013799;28;20371;-66
2022/11/28 07:39:22;;;;;;;14.52;8.90;;;5.70;99.90;;;;;;5030239;28;20422;-66
2022/11/28 07:41:47;;;;;;;17.23;8.65;;;5.70;99.90;;;;;;5012741;28;20049;-66
2022/11/28 07:44:16;;;;;;;14.80;7.93;;;5.70;99.90;;;;;;5028327;28;20111;-66
2022/11/28 07:46:43;;;;;;;16.35;9.68;;;5.70;99.90;;;;;;5014396;28;20044;-66
2022/11/28 07:49:09;;;;;;;13.63;7.75;;;5.60;99.90;;;;;;5031061;28;20042;-66
2022/11/28 07:51:35;;;;;;;14.13;8.75;;;5.50;99.90;;;;;;4996625;28;20132;-66
2022/11/28 07:54:01;;;;;;;13.27;8.07;;;5.40;99.90;;;;;;5014334;28;20041;-66
2022/11/28 07:56:28;;;;;;;14.85;8.13;;;5.40;99.90;;;;;;5026412;28;20042;-66
2022/11/28 07:58:54;;;;;;;12.82;8.15;;;5.50;99.90;;;;;;5028428;28;20495;-67
2022/11/28 08:01:22;;;;;;;13.43;8.48;;;5.50;99.90;;;;;;5014135;28;20045;-66
2022/11/28 08:03:48;;;;;;;12.93;8.43;;;5.50;99.90;;;;;;4978293;28;20156;-68
2022/11/28 08:06:15;;;;;;;12.40;8.02;;;5.60;99.90;;;;;;5028322;28;20044;-67
2022/11/28 08:08:41;;;;;;;15.75;7.63;;;5.60;99.90;;;;;;4992994;28;20061;-68
2022/11/28 08:11:07;;;;;;;14.10;8.65;;;5.60;99.90;;;;;;5020906;28;20049;-67
2022/11/28 08:13:33;;;;;;;11.95;7.60;;;5.60;99.90;;;;;;4976793;28;20056;-67
2022/11/28 08:16:06;;;;;;;11.85;7.78;;;5.60;99.90;;;;;;5026646;28;20083;-68
2022/11/28 08:18:33;;;;;;;13.13;7.95;;;5.60;99.90;;;;;;5028936;28;20059;-66
2022/11/28 08:21:10;;;;;;;13.85;8.05;;;5.60;99.90;;;;;;4996924;28;20042;-66
2022/11/28 08:23:36;;;;;;;12.05;7.75;;;5.60;99.90;;;;;;5009354;28;20069;-67
2022/11/28 08:26:08;;;;;;;13.35;8.40;;;5.60;99.90;;;;;;5027529;28;20104;-66
2022/11/28 08:28:34;;;;;;;10.73;7.50;;;5.80;99.90;;;;;;5026459;28;20092;-67
2022/11/28 08:31:07;;;;;;;10.82;7.85;;;5.70;99.90;;;;;;4993443;28;20136;-67
2022/11/28 08:33:34;;;;;;;13.52;7.88;;;5.60;99.90;;;;;;5009210;28;20069;-66
2022/11/28 08:36:02;;;;;;;12.35;7.63;;;5.60;99.90;;;;;;4978780;28;20068;-67
2022/11/28 08:38:28;;;;;;;10.82;6.95;;;5.70;99.90;;;;;;5007291;28;20049;-68
2022/11/28 08:41:03;;;;;;;12.32;7.55;;;5.70;99.90;;;;;;5009969;28;20843;-67
2022/11/28 08:43:30;;;;;;;10.85;7.28;;;5.80;99.90;;;;;;5007589;28;20084;-66
2022/11/28 08:45:58;;;;;;;11.60;6.88;;;5.90;99.90;;;;;;5025337;28;20438;-68
2022/11/28 08:48:25;;;;;;;9.93;6.35;;;5.90;99.90;;;;;;5008144;28;20053;-67
2022/11/28 08:50:51;;;;;;;10.60;6.95;;;6.00;99.90;;;;;;5011386;28;20045;-67
2022/11/28 08:53:17;;;;;;;9.73;6.43;;;6.00;99.90;;;;;;5026956;28;20049;-66
2022/11/28 08:55:43;;;;;;;10.98;7.05;;;6.00;99.90;;;;;;5012337;28;20073;-66
2022/11/28 08:58:10;;;;;;;9.93;7.45;;;6.10;99.90;;;;;;4997719;28;20196;-66
2022/11/28 09:00:36;;;;;;;11.35;7.68;;;6.10;99.90;;;;;;4996704;28;20142;-67
2022/11/28 09:03:03;;;;;;;11.45;7.60;;;6.10;99.90;;;;;;5011064;28;20565;-66
2022/11/28 09:05:29;;;;;;;12.52;7.90;;;6.10;99.90;;;;;;4996068;28;20371;-68
2022/11/28 09:07:55;;;;;;;13.40;8.63;;;6.20;99.90;;;;;;5029063;28;20490;-67
2022/11/28 09:10:21;;;;;;;12.57;8.10;;;6.20;99.90;;;;;;5009802;28;20053;-68
2022/11/28 09:12:47;;;;;;;13.77;8.43;;;6.20;99.90;;;;;;5012575;28;20049;-68
2022/11/28 09:15:13;;;;;;;12.18;7.95;;;6.20;99.90;;;;;;5027347;28;20068;-68
2022/11/28 09:17:39;;;;;;;12.65;7.93;;;6.20;99.90;;;;;;5025820;28;20145;-68
2022/11/28 09:20:07;;;;;;;12.95;7.88;;;6.20;99.90;;;;;;5026412;28;20079;-69
2022/11/28 09:22:33;;;;;;;14.75;8.77;;;6.20;99.90;;;;;;5024930;28;20105;-69
2022/11/28 09:25:00;;;;;;;13.70;8.80;;;6.20;99.90;;;;;;5010160;28;20514;-68
2022/11/28 09:27:25;;;;;;;14.90;9.50;;;6.20;99.90;;;;;;5028261;28;20084;-68
2022/11/28 09:29:51;;;;;;;13.52;9.05;;;6.20;99.90;;;;;;5011615;28;20083;-67
2022/11/28 09:32:17;;;;;;;15.63;8.48;;;6.20;99.90;;;;;;5029825;28;20060;-67
2022/11/28 09:34:43;;;;;;;16.45;8.98;;;6.20;99.90;;;;;;4992242;28;20107;-68
2022/11/28 09:37:08;;;;;;;15.05;8.88;;;6.30;99.90;;;;;;5009162;28;20061;-67
2022/11/28 09:39:34;;;;;;;15.57;8.85;;;6.30;99.90;;;;;;5027695;28;20041;-68
2022/11/28 09:42:27;;;;;;;13.70;9.57;;;6.30;99.90;;;;;;5024461;28;20093;-68
2022/11/28 09:44:59;;;;;;;16.13;9.05;;;6.30;99.90;;;;;;5008234;28;20061;-67
2022/11/28 09:47:29;;;;;;;14.98;9.18;;;6.30;99.90;;;;;;4990906;28;20095;-67
2022/11/28 09:49:59;;;;;;;15.10;9.27;;;6.30;99.90;;;;;;5025664;28;20058;-67
2022/11/28 09:52:31;;;;;;;14.32;9.23;;;6.30;99.90;;;;;;5025149;28;20049;-65
2022/11/28 09:55:15;;;;;;;17.10;9.63;;;6.30;99.90;;;;;;5028013;28;20143;-67
2022/11/28 09:57:45;;;;;;;14.38;9.25;;;6.30;99.90;;;;;;4995432;28;20128;-65
2022/11/28 10:00:22;;;;;;;14.77;9.23;;;6.30;99.90;;;;;;5011583;28;20483;-66
2022/11/28 10:02:56;;;;;;;14.88;10.15;;;6.30;99.90;;;;;;5012178;28;20080;-72
2022/11/28 10:05:34;;;;;;;14.98;9.07;;;6.40;99.90;;;;;;5012154;28;20522;-72
2022/11/28 10:08:04;;;;;;;16.05;9.35;;;6.40;99.90;;;;;;5011862;28;20081;-67
2022/11/28 10:10:49;;;;;;;13.77;9.30;;;6.40;99.90;;;;;;5024635;28;20060;-70
2022/11/28 10:13:35;;;;;;;16.10;9.48;;;6.40;99.90;;;;;;5027228;28;20041;-70
2022/11/28 10:16:17;;;;;;;15.98;9.65;;;6.50;99.90;;;;;;5022772;28;20049;-70
2022/11/28 10:18:51;;;;;;;14.35;8.65;;;6.50;99.90;;;;;;5009149;28;20052;-66
2022/11/28 10:21:46;;;;;;;15.85;9.15;;;6.50;99.90;;;;;;5007826;28;20041;-67
2022/11/28 10:24:16;;;;;;;16.60;9.55;;;6.50;99.90;;;;;;5018038;28;20116;-66
2022/11/28 10:26:47;;;;;;;16.40;9.50;;;6.50;99.90;;;;;;5015945;28;20045;-67
2022/11/28 10:29:43;;;;;;;14.25;7.90;;;6.60;99.90;;;;;;5014796;28;20049;-67
2022/11/28 10:32:16;;;;;;;14.02;8.98;;;6.60;99.90;;;;;;4984438;28;20057;-65
2022/11/28 10:35:14;;;;;;;16.55;9.23;;;6.60;99.90;;;;;;5011103;28;20073;-71
2022/11/28 10:37:41;;;;;;;15.63;8.70;;;6.60;99.90;;;;;;5031455;28;20387;-71
2022/11/28 10:40:23;;;;;;;12.18;8.10;;;6.70;99.90;;;;;;5028042;28;20068;-71
2022/11/28 10:43:13;;;;;;;14.93;8.70;;;6.70;99.90;;;;;;5012031;28;20473;-71
2022/11/28 10:45:54;;;;;;;16.08;9.10;;;6.70;99.90;;;;;;5027817;28;20043;-72
2022/11/28 10:48:46;;;;;;;13.73;8.40;;;6.70;99.90;;;;;;5022824;28;20049;-70
2022/11/28 10:51:34;;;;;;;13.88;8.82;;;6.80;99.90;;;;;;5029426;28;20088;-71
2022/11/28 10:54:22;;;;;;;11.70;7.68;;;6.80;99.90;;;;;;5030537;28;20067;-71
2022/11/28 10:57:10;;;;;;;14.32;8.10;;;6.90;99.90;;;;;;5030748;28;20055;-72
2022/11/28 11:00:07;;;;;;;12.63;8.10;;;6.90;99.90;;;;;;5030174;28;20080;-71
2022/11/28 11:02:35;;;;;;;11.07;7.50;;;6.90;99.90;;;;;;5023572;28;20348;-70
2022/11/28 11:05:01;;;;;;;;;;;6.90;99.90;;;;;;5011348;28;20044;-71
2022/11/28 11:07:31;;;;;;;12.73;8.18;;;7.00;99.90;;;;;;5027991;28;19913;-72
2022/11/28 11:10:18;;;;;;;11.48;8.18;;;7.00;99.90;;;;;;5031777;28;20159;-71
2022/11/28 11:12:44;;;;;;;12.93;8.50;;;7.00;99.90;;;;;;5030726;28;20368;-72
2022/11/28 11:15:24;;;;;;;12.45;8.52;;;7.00;99.90;;;;;;4995809;28;20053;-71
2022/11/28 11:17:51;;;;;;;15.85;9.38;;;7.10;99.90;;;;;;5029722;28;20057;-72
2022/11/28 11:20:32;;;;;;;14.65;9.00;;;7.10;99.90;;;;;;5029448;28;21154;-71
2022/11/28 11:23:27;;;;;;;13.68;8.60;;;7.00;99.90;;;;;;5028097;28;20135;-71
2022/11/28 11:25:57;;;;;;;16.63;8.93;;;7.10;99.90;;;;;;5029053;28;20037;-70
2022/11/28 11:28:45;;;;;;;14.88;9.07;;;7.10;99.90;;;;;;4994217;28;20106;-70
2022/11/28 11:31:21;;;;;;;17.45;10.25;;;7.00;99.90;;;;;;5012671;28;20075;-71
2022/11/28 11:33:47;;;;;;;15.80;9.10;;;7.10;99.90;;;;;;5011708;28;20052;-72
2022/11/28 11:36:27;;;;;;;13.43;9.07;;;7.10;99.90;;;;;;5010568;28;20092;-72
2022/11/28 11:39:09;;;;;;;13.60;8.45;;;7.20;99.90;;;;;;5013517;28;20053;-71
2022/11/28 11:41:35;;;;;;;15.57;8.35;;;7.20;99.90;;;;;;5029486;28;20052;-72
2022/11/28 11:44:25;;;;;;;13.07;7.90;;;7.20;99.90;;;;;;5013770;28;20042;-72
2022/11/28 11:47:00;;;;;;;14.65;8.55;;;7.30;99.90;;;;;;5004312;28;20048;-72
2022/11/28 11:49:30;;;;;;;14.27;7.95;;;7.30;99.90;;;;;;5014789;28;20037;-72
2022/11/28 11:52:03;;;;;;;14.00;8.40;;;7.30;99.90;;;;;;5030513;28;20045;-71
2022/11/28 11:54:29;;;;;;;12.85;8.27;;;7.30;99.90;;;;;;4996404;28;20111;-72
2022/11/28 11:56:55;;;;;;;12.63;8.23;;;7.30;99.90;;;;;;5026609;28;20037;-72
2022/11/28 11:59:33;;;;;;;13.77;8.15;;;7.30;99.90;;;;;;4994902;28;20069;-72
2022/11/28 12:02:05;;;;;;;10.77;7.20;;;7.30;99.90;;;;;;5012693;28;20129;-72
2022/11/28 12:04:39;;;;;;;13.75;7.38;;;7.30;99.90;;;;;;5013339;28;20732;-72
2022/11/28 12:07:08;;;;;;;12.50;7.53;;;7.30;99.90;;;;;;4996551;28;20055;-71
2022/11/28 12:09:42;;;;;;;12.55;8.20;;;7.30;99.90;;;;;;5013995;28;20131;-71
2022/11/28 12:12:21;;;;;;;17.70;8.13;;;7.40;99.90;;;;;;5026103;28;20060;-71
2022/11/28 12:14:47;;;;;;;15.73;8.18;;;7.40;99.90;;;;;;5013737;28;20474;-72
2022/11/28 12:17:22;;;;;;;13.52;8.13;;;7.40;99.90;;;;;;5028788;28;20077;-72
2022/11/28 12:20:06;;;;;;;12.27;7.85;;;7.40;99.90;;;;;;5012810;28;20459;-71
2022/11/28 12:22:57;;;;;;;11.05;7.80;;;7.40;99.90;;;;;;5029386;28;20418;-71
2022/11/28 12:25:30;;;;;;;14.95;8.85;;;7.40;99.90;;;;;;5030440;28;20144;-70
2022/11/28 12:28:04;;;;;;;13.73;8.23;;;7.40;99.90;;;;;;5004258;28;20103;-71
2022/11/28 12:30:59;;;;;;;12.85;8.10;;;7.40;99.90;;;;;;5024859;28;20099;-71
2022/11/28 12:34:03;;;;;;;12.95;8.25;;;7.50;99.90;;;;;;5029299;28;20061;-71
2022/11/28 12:36:36;;;;;;;13.60;7.65;;;7.50;99.90;;;;;;5028687;28;20061;-71
2022/11/28 12:39:21;;;;;;;13.77;7.95;;;7.50;99.90;;;;;;4997169;28;20073;-72
2022/11/28 12:42:11;;;;;;;13.43;7.97;;;7.50;99.90;;;;;;5013141;28;20045;-71
2022/11/28 12:45:11;;;;;;;13.13;8.00;;;7.50;99.90;;;;;;5010653;28;20052;-72
2022/11/28 12:47:51;;;;;;;15.00;8.25;;;7.50;99.90;;;;;;5029974;28;20049;-73
2022/11/28 12:50:32;;;;;;;12.70;8.23;;;7.50;99.90;;;;;;5022363;28;20037;-72
2022/11/28 12:53:01;;;;;;;13.35;8.60;;;7.50;99.90;;;;;;4992778;28;20049;-71
2022/11/28 12:55:53;;;;;;;13.70;7.75;;;7.60;99.90;;;;;;5021918;28;20440;-71
2022/11/28 12:58:52;;;;;;;11.98;7.57;;;7.50;99.90;;;;;;5011253;28;20566;-71
2022/11/28 13:01:30;;;;;;;11.52;7.85;;;7.50;99.90;;;;;;5028100;28;20065;-71
2022/11/28 13:04:39;;;;;;;14.50;7.20;;;7.50;99.90;;;;;;5022477;28;20103;-72
2022/11/28 13:07:43;;;;;;;15.25;7.93;;;7.60;99.90;;;;;;5014776;28;20077;-72
2022/11/28 13:10:35;;;;;;;12.35;7.40;;;7.60;99.90;;;;;;5025516;28;20554;-72
2022/11/28 13:13:09;;;;;;;11.77;7.22;;;7.60;99.90;;;;;;5025645;28;20506;-71
2022/11/28 13:15:53;;;;;;;12.88;7.85;;;7.60;99.90;;;;;;5010976;28;20130;-71
2022/11/28 13:18:44;;;;;;;14.30;7.70;;;7.60;99.90;;;;;;5027825;28;20041;-71